Time;durP1;ratioP1;P1;durP2;ratioP2;P2;SDS_P1;SDS_P2;PMS_P1;PMS_P2;Temp;Humidity;BMP_temperature;BMP_pressure;BME280_temperature;BME280_humidity;BME280_pressure;Samples;Min_cycle;Max_cycle;Signal;HPM_P1;HPM_P2
2023/01/31 00:02:13;;;;;;;3.10;1.55;;;25.70;66.90;;;;;;4136112;28;20050;-41
2023/01/31 00:04:36;;;;;;;3.55;1.63;;;25.70;66.70;;;;;;4134394;28;20042;-42
2023/01/31 00:06:58;;;;;;;3.92;1.58;;;25.80;66.70;;;;;;4125261;28;20125;-40
2023/01/31 00:09:21;;;;;;;2.78;1.35;;;25.80;66.70;;;;;;4133293;28;20417;-38
2023/01/31 00:11:43;;;;;;;1.80;1.17;;;25.90;66.60;;;;;;4134280;28;20045;-39
2023/01/31 00:14:07;;;;;;;3.75;1.30;;;25.90;66.60;;;;;;4133042;28;20124;-41
2023/01/31 00:16:30;;;;;;;3.75;1.10;;;26.00;66.50;;;;;;4133876;28;20510;-45
2023/01/31 00:18:52;;;;;;;3.63;1.10;;;26.00;66.50;;;;;;4136516;28;20517;-40
2023/01/31 00:21:17;;;;;;;4.38;1.20;;;26.00;66.50;;;;;;4141164;28;20050;-47
2023/01/31 00:23:41;;;;;;;3.70;1.20;;;26.10;66.50;;;;;;4141043;28;20053;-41
2023/01/31 00:26:13;;;;;;;3.17;1.13;;;26.10;66.40;;;;;;4141851;28;20585;-40
2023/01/31 00:28:35;;;;;;;4.53;1.60;;;26.10;66.30;;;;;;4135360;28;20040;-39
2023/01/31 00:30:58;;;;;;;1.55;1.00;;;26.10;66.30;;;;;;4130300;28;20553;-41
2023/01/31 00:33:22;;;;;;;2.72;1.20;;;26.10;66.20;;;;;;4129720;28;20076;-41
2023/01/31 00:35:44;;;;;;;2.10;0.93;;;26.20;66.20;;;;;;4132149;28;20034;-42
2023/01/31 00:38:06;;;;;;;6.38;1.80;;;26.20;66.20;;;;;;4128079;28;20056;-43
2023/01/31 00:40:29;;;;;;;3.65;1.13;;;26.20;66.20;;;;;;4131089;28;20042;-41
2023/01/31 00:42:51;;;;;;;1.88;1.00;;;26.20;66.30;;;;;;4130415;28;20118;-41
2023/01/31 00:45:14;;;;;;;6.63;1.48;;;26.20;66.20;;;;;;4129538;28;20132;-43
2023/01/31 00:47:37;;;;;;;4.20;1.13;;;26.20;66.20;;;;;;4116950;28;20038;-42
2023/01/31 00:49:59;;;;;;;3.30;1.30;;;26.20;66.20;;;;;;4131604;28;20042;-40
2023/01/31 00:52:22;;;;;;;4.30;1.10;;;26.20;66.20;;;;;;4129270;28;20623;-41
2023/01/31 00:54:44;;;;;;;4.05;1.20;;;26.30;66.30;;;;;;4130600;28;20081;-41
2023/01/31 00:57:07;;;;;;;2.22;1.10;;;26.30;66.20;;;;;;4136904;28;20049;-41
2023/01/31 00:59:29;;;;;;;2.80;1.05;;;26.30;65.70;;;;;;4127498;28;20470;-47
2023/01/31 01:01:51;;;;;;;3.03;1.40;;;26.30;66.30;;;;;;4130319;28;20113;-45
2023/01/31 01:04:14;;;;;;;3.67;1.38;;;26.30;66.30;;;;;;4130240;28;20045;-42
2023/01/31 01:06:40;;;;;;;2.42;1.20;;;26.30;66.20;;;;;;4130912;28;20041;-43
2023/01/31 01:09:02;;;;;;;13.50;1.70;;;26.30;66.20;;;;;;4132376;28;20108;-44
2023/01/31 01:11:31;;;;;;;5.20;1.45;;;26.30;66.20;;;;;;4128563;28;20045;-45
2023/01/31 01:13:54;;;;;;;4.22;1.67;;;26.30;66.40;;;;;;4134772;28;20045;-43
2023/01/31 01:16:33;;;;;;;3.17;1.50;;;26.30;66.80;;;;;;4129754;28;20154;-49
2023/01/31 01:18:55;;;;;;;7.38;2.67;;;26.30;66.40;;;;;;4132650;28;20458;-45
2023/01/31 01:21:20;;;;;;;9.18;1.80;;;26.30;66.40;;;;;;4138604;28;20030;-41
2023/01/31 01:23:45;;;;;;;5.40;1.63;;;26.40;66.60;;;;;;4142449;28;20041;-46
2023/01/31 01:26:20;;;;;;;5.47;1.67;;;26.40;66.90;;;;;;4135655;28;20466;-43
2023/01/31 01:28:43;;;;;;;3.53;1.25;;;26.50;66.40;;;;;;4135477;28;20041;-47
2023/01/31 01:31:07;;;;;;;3.67;1.70;;;26.50;66.40;;;;;;4137024;28;20583;-48
2023/01/31 01:33:31;;;;;;;2.15;1.08;;;26.50;66.30;;;;;;4134423;28;20465;-44
2023/01/31 01:35:53;;;;;;;3.78;1.25;;;26.50;66.30;;;;;;4137146;28;20316;-45
2023/01/31 01:38:15;;;;;;;2.92;1.30;;;26.60;66.30;;;;;;4133709;28;20049;-43
2023/01/31 01:40:38;;;;;;;2.95;1.10;;;26.60;66.30;;;;;;4140231;28;20040;-42
2023/01/31 01:43:00;;;;;;;3.55;1.27;;;26.60;66.40;;;;;;4133629;28;20053;-41
2023/01/31 01:45:23;;;;;;;2.78;1.10;;;26.60;66.40;;;;;;4120494;28;20414;-42
2023/01/31 01:47:58;;;;;;;3.22;1.10;;;26.60;66.40;;;;;;4138792;28;20049;-40
2023/01/31 01:50:40;;;;;;;5.60;1.30;;;26.60;66.40;;;;;;4139028;28;20034;-42
2023/01/31 01:53:05;;;;;;;1.98;0.93;;;26.70;66.40;;;;;;4137287;28;20041;-45
2023/01/31 01:55:54;;;;;;;5.75;1.70;;;26.70;66.00;;;;;;4136583;28;20048;-41
2023/01/31 01:58:24;;;;;;;4.18;1.52;;;26.80;65.70;;;;;;4139501;28;20120;-43
2023/01/31 02:00:48;;;;;;;3.58;1.35;;;26.80;65.40;;;;;;4133994;28;20045;-45
2023/01/31 02:03:11;;;;;;;4.03;1.30;;;26.70;65.20;;;;;;4135136;28;20049;-47
2023/01/31 02:05:42;;;;;;;2.70;1.20;;;26.80;65.20;;;;;;4140188;28;20494;-44
2023/01/31 02:08:05;;;;;;;3.20;1.25;;;26.80;65.20;;;;;;4136371;28;20106;-46
2023/01/31 02:10:40;;;;;;;2.10;1.20;;;26.80;65.60;;;;;;4139392;28;20076;-43
2023/01/31 02:13:03;;;;;;;2.28;1.20;;;26.80;65.70;;;;;;4139378;28;20038;-44
2023/01/31 02:15:26;;;;;;;2.42;1.10;;;26.80;65.70;;;;;;4133990;28;20442;-46
2023/01/31 02:17:49;;;;;;;4.15;1.10;;;26.90;65.80;;;;;;4136032;28;20096;-42
2023/01/31 02:20:40;;;;;;;2.35;1.42;;;26.90;65.70;;;;;;4139178;28;20044;-45
2023/01/31 02:23:17;;;;;;;2.65;1.10;;;27.00;65.70;;;;;;4137069;28;20069;-44
2023/01/31 02:26:02;;;;;;;1.77;0.90;;;27.00;65.90;;;;;;4130588;28;20054;-44
2023/01/31 02:28:54;;;;;;;2.35;1.27;;;27.00;65.90;;;;;;4137775;28;20132;-45
2023/01/31 02:32:01;;;;;;;1.85;1.00;;;27.00;65.90;;;;;;4125889;28;20053;-49
2023/01/31 02:34:43;;;;;;;4.07;1.45;;;27.10;66.00;;;;;;4135366;28;20405;-44
2023/01/31 02:37:40;;;;;;;3.75;1.10;;;27.10;65.90;;;;;;4127204;28;20387;-43
2023/01/31 02:40:27;;;;;;;4.35;1.15;;;27.10;66.00;;;;;;4107327;28;20030;-43
2023/01/31 02:43:05;;;;;;;4.75;1.27;;;27.20;66.20;;;;;;4137177;28;20470;-45
2023/01/31 02:45:57;;;;;;;3.55;1.30;;;27.10;66.00;;;;;;4129669;28;20058;-46
2023/01/31 02:48:38;;;;;;;2.80;1.42;;;27.20;66.00;;;;;;4132892;28;20027;-51
2023/01/31 02:51:07;;;;;;;3.65;1.40;;;27.20;65.90;;;;;;4142110;28;20084;-45
2023/01/31 02:53:33;;;;;;;3.70;1.05;;;27.20;65.90;;;;;;4138395;28;20501;-45
2023/01/31 02:56:16;;;;;;;2.70;1.20;;;27.30;66.00;;;;;;4137805;28;20560;-46
2023/01/31 02:58:41;;;;;;;5.00;1.23;;;27.30;65.90;;;;;;4137723;28;20029;-42
2023/01/31 03:01:06;;;;;;;3.20;1.20;;;27.30;65.90;;;;;;4124797;28;20395;-43
2023/01/31 03:03:32;;;;;;;4.03;1.05;;;27.40;66.00;;;;;;4129940;28;20061;-44
2023/01/31 03:06:21;;;;;;;3.60;0.95;;;27.40;65.90;;;;;;4127480;28;20396;-48
2023/01/31 03:08:45;;;;;;;2.10;1.00;;;27.40;66.00;;;;;;4133723;28;20111;-46
2023/01/31 03:11:08;;;;;;;5.15;1.45;;;27.50;65.90;;;;;;4132996;28;20045;-49
2023/01/31 03:13:47;;;;;;;3.85;1.20;;;27.50;65.90;;;;;;4133245;28;20048;-45
2023/01/31 03:19:23;;;;;;;1.02;0.70;;;27.60;66.10;;;;;;4139333;28;20034;-42
2023/01/31 03:21:56;;;;;;;4.57;1.00;;;27.60;66.10;;;;;;4129636;28;20145;-42
2023/01/31 03:24:24;;;;;;;4.15;1.23;;;27.70;66.20;;;;;;4133007;28;20053;-46
2023/01/31 03:26:48;;;;;;;4.15;0.93;;;27.70;66.40;;;;;;4138759;28;20034;-41
2023/01/31 03:29:12;;;;;;;;;;;27.70;66.20;;;;;;4136278;28;20038;-43
2023/01/31 03:32:06;;;;;;;3.17;1.05;;;27.80;66.40;;;;;;4135815;28;20004;-46
2023/01/31 03:34:28;;;;;;;3.42;1.05;;;27.80;66.40;;;;;;4132357;28;20038;-45
2023/01/31 03:37:15;;;;;;;3.58;1.00;;;27.80;66.50;;;;;;4138978;28;20444;-43
2023/01/31 03:39:41;;;;;;;3.03;0.90;;;27.80;66.50;;;;;;4134019;28;20040;-42
2023/01/31 03:42:22;;;;;;;4.15;1.40;;;27.90;66.50;;;;;;4138870;28;20478;-48
2023/01/31 03:44:56;;;;;;;3.65;1.17;;;27.90;66.50;;;;;;4139612;28;20069;-44
2023/01/31 03:47:45;;;;;;;;;;;27.90;66.30;;;;;;4132265;28;20100;-48
2023/01/31 03:50:22;;;;;;;3.88;1.35;;;28.00;66.30;;;;;;4142444;28;19917;-46
2023/01/31 03:52:52;;;;;;;3.83;1.50;;;28.00;66.40;;;;;;4139323;28;20473;-43
2023/01/31 03:55:23;;;;;;;4.65;1.20;;;28.00;66.50;;;;;;4125354;28;20041;-45
2023/01/31 03:57:51;;;;;;;3.33;1.20;;;28.10;67.20;;;;;;4129636;28;20038;-44
2023/01/31 04:00:16;;;;;;;5.78;1.33;;;28.10;66.60;;;;;;4135594;28;20073;-51
2023/01/31 04:02:40;;;;;;;2.25;1.30;;;28.10;64.80;;;;;;4134826;28;20128;-49
2023/01/31 04:05:12;;;;;;;1.80;1.13;;;27.90;61.50;;;;;;4133181;28;20535;-45
2023/01/31 04:07:36;;;;;;;1.83;1.17;;;27.70;60.70;;;;;;4141097;28;20045;-44
2023/01/31 04:09:58;;;;;;;1.60;1.23;;;27.40;60.20;;;;;;4138065;28;20501;-45
2023/01/31 04:12:21;;;;;;;1.48;1.35;;;27.20;59.70;;;;;;4134788;28;20077;-48
2023/01/31 04:14:43;;;;;;;1.25;1.10;;;27.00;59.10;;;;;;4139716;28;20537;-50
2023/01/31 04:17:05;;;;;;;1.63;1.30;;;26.80;59.80;;;;;;4137948;28;20042;-46
2023/01/31 04:19:28;;;;;;;1.27;1.00;;;26.70;58.70;;;;;;4139742;28;20040;-41
2023/01/31 04:21:50;;;;;;;1.67;1.13;;;26.50;58.60;;;;;;4140346;28;20104;-44
2023/01/31 04:24:13;;;;;;;1.40;1.10;;;26.40;58.90;;;;;;4131919;28;20042;-45
2023/01/31 04:26:36;;;;;;;0.95;0.82;;;26.30;59.00;;;;;;4135637;28;20133;-44
2023/01/31 04:28:58;;;;;;;1.33;1.00;;;26.20;58.20;;;;;;4135036;28;20046;-42
2023/01/31 04:31:21;;;;;;;1.15;0.90;;;26.20;58.50;;;;;;4139859;28;20580;-43
2023/01/31 04:33:43;;;;;;;2.60;1.30;;;26.10;58.20;;;;;;4139002;28;20046;-46
2023/01/31 04:36:07;;;;;;;2.90;1.50;;;26.00;58.10;;;;;;4135637;28;20092;-45
2023/01/31 04:38:29;;;;;;;3.72;1.92;;;25.90;58.50;;;;;;4137108;28;20414;-47
2023/01/31 04:40:51;;;;;;;3.25;1.85;;;25.80;57.70;;;;;;4138557;28;20045;-42
2023/01/31 04:43:14;;;;;;;3.85;2.13;;;25.70;57.70;;;;;;4135279;28;20136;-43
2023/01/31 04:45:36;;;;;;;3.60;1.77;;;25.60;58.10;;;;;;4139782;28;20503;-44
2023/01/31 04:47:59;;;;;;;4.57;2.10;;;25.50;57.70;;;;;;4131448;28;20044;-42
2023/01/31 04:50:21;;;;;;;3.38;1.83;;;25.40;58.10;;;;;;4140143;28;20116;-43
2023/01/31 04:52:46;;;;;;;3.15;1.58;;;25.40;57.60;;;;;;4139937;28;20046;-43
2023/01/31 04:55:08;;;;;;;3.90;1.98;;;25.30;57.90;;;;;;4141070;28;20058;-44
2023/01/31 04:57:31;;;;;;;3.10;1.60;;;25.20;57.80;;;;;;4139242;28;20414;-45
2023/01/31 04:59:53;;;;;;;3.15;1.92;;;25.10;57.70;;;;;;4138464;28;20049;-42
2023/01/31 05:02:16;;;;;;;4.63;3.00;;;25.00;58.00;;;;;;4125235;28;20506;-41
2023/01/31 05:04:39;;;;;;;8.60;4.10;;;24.80;58.30;;;;;;4139360;28;20048;-46
2023/01/31 05:07:01;;;;;;;8.15;5.32;;;24.80;58.10;;;;;;4141005;28;20125;-44
2023/01/31 05:09:25;;;;;;;8.55;5.85;;;24.60;58.60;;;;;;4124248;28;20391;-41
2023/01/31 05:11:48;;;;;;;9.63;6.35;;;24.60;58.50;;;;;;4136501;28;20041;-43
2023/01/31 05:14:12;;;;;;;10.57;7.63;;;24.50;58.60;;;;;;4139051;28;20044;-43
2023/01/31 05:16:35;;;;;;;11.57;7.72;;;24.40;58.20;;;;;;4139520;28;20338;-41
2023/01/31 05:18:57;;;;;;;9.68;7.93;;;24.30;58.40;;;;;;4137147;28;20042;-44
2023/01/31 05:21:19;;;;;;;11.98;9.32;;;24.20;58.20;;;;;;4131440;28;20649;-43
2023/01/31 05:23:42;;;;;;;11.73;10.02;;;24.20;57.90;;;;;;4132503;28;20050;-43
2023/01/31 05:26:04;;;;;;;11.45;9.52;;;24.20;58.20;;;;;;4136713;28;20549;-44
2023/01/31 05:28:27;;;;;;;13.38;10.27;;;24.10;59.20;;;;;;4131472;28;20041;-45
2023/01/31 05:30:49;;;;;;;11.88;10.02;;;24.00;58.90;;;;;;4111616;28;20550;-43
2023/01/31 05:33:12;;;;;;;12.40;10.18;;;23.90;58.10;;;;;;4130885;28;20054;-41
2023/01/31 05:35:34;;;;;;;11.82;9.93;;;23.80;58.20;;;;;;4124249;28;20540;-47
2023/01/31 05:37:57;;;;;;;12.30;10.40;;;23.80;58.30;;;;;;4134635;28;20104;-44
2023/01/31 05:40:20;;;;;;;14.43;10.45;;;23.70;58.40;;;;;;4137007;28;20537;-42
2023/01/31 05:42:42;;;;;;;12.65;11.35;;;23.70;58.40;;;;;;4131120;28;20053;-46
2023/01/31 05:45:06;;;;;;;12.65;10.50;;;23.70;57.90;;;;;;4128968;28;20370;-43
2023/01/31 05:47:28;;;;;;;11.65;10.45;;;23.60;58.30;;;;;;4129660;28;20506;-43
2023/01/31 05:49:50;;;;;;;13.65;11.38;;;23.60;57.90;;;;;;4119989;28;20034;-42
2023/01/31 05:52:13;;;;;;;12.73;10.52;;;23.60;58.00;;;;;;4137347;28;20041;-42
2023/01/31 05:54:35;;;;;;;12.60;10.60;;;23.60;58.00;;;;;;4134006;28;20053;-43
2023/01/31 05:56:58;;;;;;;11.70;10.48;;;23.60;58.10;;;;;;4133983;28;20049;-40
2023/01/31 05:59:20;;;;;;;12.02;10.70;;;23.50;57.60;;;;;;4137475;28;20108;-43
2023/01/31 06:01:42;;;;;;;13.85;10.57;;;23.50;57.70;;;;;;4129774;28;20042;-44
2023/01/31 06:04:05;;;;;;;13.35;10.88;;;23.50;57.80;;;;;;4133040;28;20473;-41
2023/01/31 06:06:27;;;;;;;13.15;10.98;;;23.50;58.00;;;;;;4132277;28;20034;-45
2023/01/31 06:08:50;;;;;;;13.07;11.68;;;23.50;58.40;;;;;;4135145;28;20417;-44
2023/01/31 06:11:13;;;;;;;12.52;11.07;;;23.40;58.10;;;;;;4134172;28;20049;-41
2023/01/31 06:13:35;;;;;;;13.20;11.10;;;23.40;58.50;;;;;;4134908;28;20441;-43
2023/01/31 06:15:57;;;;;;;12.85;11.10;;;23.30;58.20;;;;;;4133635;28;20092;-42
2023/01/31 06:18:20;;;;;;;12.77;10.98;;;23.30;58.30;;;;;;4139171;28;20061;-42
2023/01/31 06:20:42;;;;;;;12.55;11.07;;;23.20;58.20;;;;;;4137799;28;20052;-48
2023/01/31 06:23:05;;;;;;;12.52;10.45;;;23.20;58.50;;;;;;4138491;28;20045;-44
2023/01/31 06:25:27;;;;;;;11.93;10.35;;;23.20;58.50;;;;;;4131729;28;20501;-46
2023/01/31 06:27:50;;;;;;;12.48;10.63;;;23.20;58.40;;;;;;4130797;28;20442;-44
2023/01/31 06:30:13;;;;;;;12.50;11.20;;;23.10;58.70;;;;;;4128695;28;20042;-43
2023/01/31 06:32:35;;;;;;;11.68;10.48;;;23.10;58.30;;;;;;4134500;28;20041;-44
2023/01/31 06:34:58;;;;;;;11.80;10.25;;;23.10;58.30;;;;;;4130764;28;20038;-41
2023/01/31 06:37:20;;;;;;;13.10;10.35;;;23.10;58.70;;;;;;4119351;28;20065;-43
2023/01/31 06:39:43;;;;;;;12.98;10.57;;;23.10;58.70;;;;;;4131203;28;20044;-45
2023/01/31 06:42:06;;;;;;;11.48;10.35;;;23.00;58.50;;;;;;4132556;28;20344;-44
2023/01/31 06:44:28;;;;;;;12.77;10.27;;;23.00;58.50;;;;;;4134308;28;20054;-44
2023/01/31 06:46:51;;;;;;;16.67;10.68;;;22.90;58.50;;;;;;4126551;28;20137;-45
2023/01/31 06:49:13;;;;;;;12.57;10.27;;;22.90;58.40;;;;;;4138524;28;20382;-47
2023/01/31 06:51:35;;;;;;;11.50;10.13;;;22.90;58.40;;;;;;4140747;28;20514;-47
2023/01/31 06:53:58;;;;;;;11.02;9.73;;;22.90;58.40;;;;;;4139606;28;20053;-48
2023/01/31 06:56:20;;;;;;;13.25;9.00;;;22.80;58.50;;;;;;4133042;28;20105;-42
2023/01/31 06:58:43;;;;;;;14.18;8.32;;;22.80;58.40;;;;;;4134914;28;20034;-48
2023/01/31 07:01:10;;;;;;;9.52;7.90;;;22.80;58.60;;;;;;4137583;28;20046;-43
2023/01/31 07:03:33;;;;;;;9.05;6.57;;;22.70;58.60;;;;;;4132426;28;20042;-45
2023/01/31 07:05:55;;;;;;;7.65;6.50;;;22.70;58.80;;;;;;4132704;28;20072;-43
2023/01/31 07:08:18;;;;;;;6.97;5.97;;;22.70;58.90;;;;;;4133386;28;20512;-43
2023/01/31 07:10:40;;;;;;;6.80;5.57;;;22.60;58.90;;;;;;4133449;28;20042;-44
2023/01/31 07:13:03;;;;;;;6.85;4.85;;;22.60;59.00;;;;;;4133963;28;20425;-46
2023/01/31 07:15:25;;;;;;;7.30;4.80;;;22.50;59.20;;;;;;4136789;28;20412;-44
2023/01/31 07:17:47;;;;;;;5.18;3.95;;;22.50;59.30;;;;;;4132030;28;20264;-51
2023/01/31 07:20:11;;;;;;;4.60;3.50;;;22.40;59.20;;;;;;4135670;28;20034;-42
2023/01/31 07:22:33;;;;;;;6.80;3.67;;;22.40;59.10;;;;;;4133226;28;20081;-48
2023/01/31 07:24:55;;;;;;;4.90;3.20;;;22.40;59.20;;;;;;4134717;28;20038;-50
2023/01/31 07:27:18;;;;;;;5.15;3.42;;;22.30;59.30;;;;;;4131198;28;20405;-44
2023/01/31 07:29:41;;;;;;;4.07;2.80;;;22.30;59.40;;;;;;4131498;28;20112;-48
2023/01/31 07:32:04;;;;;;;4.90;2.60;;;22.20;59.50;;;;;;4135591;28;20044;-51
2023/01/31 07:34:26;;;;;;;3.90;2.42;;;22.20;59.50;;;;;;4137289;28;20037;-44
2023/01/31 07:36:52;;;;;;;3.17;2.47;;;22.20;59.60;;;;;;4136385;28;20037;-50
2023/01/31 07:39:14;;;;;;;4.60;2.55;;;22.10;59.50;;;;;;4132372;28;20045;-42
2023/01/31 07:41:36;;;;;;;3.67;2.20;;;22.10;59.50;;;;;;4135908;28;20037;-47
2023/01/31 07:43:59;;;;;;;5.18;2.00;;;22.00;59.50;;;;;;4137235;28;20429;-42
2023/01/31 07:46:21;;;;;;;11.07;2.10;;;22.00;60.30;;;;;;4117279;28;20042;-44
2023/01/31 07:48:44;;;;;;;5.47;2.38;;;22.10;61.00;;;;;;4129425;28;20092;-45
2023/01/31 07:51:07;;;;;;;4.88;2.20;;;22.20;62.20;;;;;;4132207;28;20040;-43
2023/01/31 07:53:32;;;;;;;5.65;2.22;;;22.40;63.00;;;;;;4130591;28;20038;-42
2023/01/31 07:55:54;;;;;;;5.40;2.10;;;22.60;63.80;;;;;;4131314;28;20042;-43
2023/01/31 07:58:17;;;;;;;14.70;2.60;;;22.80;63.90;;;;;;4119583;28;20474;-41
2023/01/31 08:03:35;;;;;;;3.47;1.83;;;23.10;64.30;;;;;;4131734;28;20481;-42
2023/01/31 08:05:58;;;;;;;4.05;2.20;;;23.20;64.90;;;;;;4134355;28;20120;-48
2023/01/31 08:08:20;;;;;;;4.35;1.95;;;23.30;65.00;;;;;;4116475;28;20129;-44
2023/01/31 08:10:42;;;;;;;5.05;1.70;;;23.40;65.20;;;;;;4132371;28;20042;-44
2023/01/31 08:13:05;;;;;;;3.53;1.55;;;23.50;65.30;;;;;;4125916;28;20608;-47
2023/01/31 08:15:27;;;;;;;5.20;1.80;;;23.60;65.40;;;;;;4129092;28;20042;-43
2023/01/31 08:17:50;;;;;;;7.47;1.90;;;23.80;65.40;;;;;;4131879;28;20084;-43
2023/01/31 08:20:12;;;;;;;7.13;2.30;;;23.80;65.20;;;;;;4133611;28;20415;-42
2023/01/31 08:22:35;;;;;;;8.60;1.92;;;24.00;65.20;;;;;;4131365;28;20577;-44
2023/01/31 08:24:57;;;;;;;5.72;1.60;;;24.00;65.40;;;;;;4131763;28;20037;-42
2023/01/31 08:27:20;;;;;;;5.85;1.98;;;24.10;65.40;;;;;;4128412;28;20048;-42
2023/01/31 08:29:42;;;;;;;5.13;1.40;;;24.20;65.50;;;;;;4126763;28;20101;-43
2023/01/31 08:32:05;;;;;;;6.15;1.52;;;24.20;65.40;;;;;;4128871;28;20077;-46
2023/01/31 08:34:27;;;;;;;6.22;1.60;;;24.30;65.40;;;;;;4136968;28;20041;-43
2023/01/31 08:36:50;;;;;;;5.13;1.50;;;24.40;65.50;;;;;;4126447;28;20113;-41
2023/01/31 08:39:12;;;;;;;2.63;1.60;;;24.40;65.50;;;;;;4129659;28;20041;-41
2023/01/31 08:41:36;;;;;;;5.90;1.52;;;24.50;65.60;;;;;;4129169;28;20132;-42
2023/01/31 08:43:59;;;;;;;6.10;1.67;;;24.60;65.60;;;;;;4130551;28;20395;-42
2023/01/31 08:46:24;;;;;;;5.32;1.20;;;24.60;65.60;;;;;;4128747;28;20108;-42
2023/01/31 08:48:46;;;;;;;4.68;1.27;;;24.60;65.70;;;;;;4131034;28;20441;-43
2023/01/31 08:51:11;;;;;;;5.63;1.38;;;24.70;65.70;;;;;;4125197;28;20038;-48
2023/01/31 08:53:34;;;;;;;4.07;1.45;;;24.70;65.70;;;;;;4131521;28;20563;-42
2023/01/31 08:56:01;;;;;;;4.30;1.17;;;24.80;65.70;;;;;;4113935;28;20104;-42
2023/01/31 08:58:23;;;;;;;2.88;1.10;;;24.80;65.70;;;;;;4125007;28;20038;-42
2023/01/31 09:00:45;;;;;;;3.80;1.20;;;24.80;65.60;;;;;;4126842;28;20046;-45
2023/01/31 09:03:17;;;;;;;3.28;1.25;;;24.80;65.70;;;;;;4127652;28;20046;-43
2023/01/31 09:05:40;;;;;;;6.38;1.90;;;24.90;65.70;;;;;;4116851;28;20128;-41
2023/01/31 09:08:02;;;;;;;7.25;1.60;;;24.90;65.70;;;;;;4128590;28;20050;-43
2023/01/31 09:10:24;;;;;;;5.68;1.70;;;25.00;65.80;;;;;;4132942;28;20065;-47
2023/01/31 09:12:47;;;;;;;3.40;0.90;;;25.10;65.80;;;;;;4133557;28;20078;-45
2023/01/31 09:15:10;;;;;;;6.05;1.38;;;25.10;65.80;;;;;;4132834;28;20423;-43
2023/01/31 09:17:32;;;;;;;2.20;1.23;;;25.10;65.60;;;;;;4130212;28;20092;-47
2023/01/31 09:19:55;;;;;;;6.75;1.27;;;25.20;65.70;;;;;;4130541;28;20073;-46
2023/01/31 09:22:19;;;;;;;4.68;1.17;;;25.30;65.70;;;;;;4127274;28;20033;-45
2023/01/31 09:24:41;;;;;;;3.97;1.30;;;25.30;65.60;;;;;;4133814;28;20068;-41
2023/01/31 09:27:04;;;;;;;5.38;1.50;;;25.30;65.60;;;;;;4136073;28;20439;-44
2023/01/31 09:29:27;;;;;;;5.40;1.25;;;25.40;65.60;;;;;;4133625;28;20033;-43
2023/01/31 09:31:53;;;;;;;5.03;1.55;;;25.40;65.50;;;;;;4137047;28;20037;-43
2023/01/31 09:34:16;;;;;;;2.55;1.20;;;25.30;65.60;;;;;;4133837;28;20377;-44
2023/01/31 09:36:38;;;;;;;2.58;1.17;;;25.30;65.60;;;;;;4130759;28;20038;-42
2023/01/31 09:39:00;;;;;;;5.28;1.58;;;25.30;65.70;;;;;;4128693;28;20030;-41
2023/01/31 09:41:23;;;;;;;3.80;1.30;;;25.30;67.40;;;;;;4127269;28;20050;-45
2023/01/31 09:43:51;;;;;;;5.53;1.80;;;25.40;67.60;;;;;;4127037;28;20475;-42
2023/01/31 09:46:19;;;;;;;4.97;1.60;;;25.40;67.80;;;;;;4131707;28;20062;-43
2023/01/31 09:48:45;;;;;;;10.27;1.98;;;25.50;67.80;;;;;;4128262;28;20034;-45
2023/01/31 09:51:10;;;;;;;8.63;2.25;;;25.60;68.10;;;;;;4135550;28;20511;-42
2023/01/31 09:53:36;;;;;;;5.03;1.80;;;25.60;68.30;;;;;;4135091;28;20034;-45
2023/01/31 09:56:19;;;;;;;5.18;1.58;;;25.60;68.10;;;;;;4123799;28;20425;-46
2023/01/31 09:58:51;;;;;;;5.53;1.55;;;25.60;68.10;;;;;;4132155;28;20034;-44
2023/01/31 10:01:42;;;;;;;3.53;1.45;;;25.60;68.20;;;;;;4133462;28;20041;-53
2023/01/31 10:04:56;;;;;;;5.05;1.52;;;25.60;68.00;;;;;;4138047;28;20144;-45
2023/01/31 10:07:41;;;;;;;3.40;1.55;;;25.70;68.10;;;;;;4107755;28;20038;-45
2023/01/31 10:10:17;;;;;;;3.40;1.40;;;25.70;67.90;;;;;;4133724;28;20046;-43
2023/01/31 10:12:43;;;;;;;3.55;1.50;;;25.70;67.80;;;;;;4137922;28;20037;-48
2023/01/31 10:15:28;;;;;;;2.88;1.00;;;25.70;67.70;;;;;;4131967;28;20549;-45
2023/01/31 10:17:58;;;;;;;1.92;1.02;;;25.80;67.70;;;;;;4134279;28;20560;-44
2023/01/31 10:20:24;;;;;;;2.60;1.30;;;25.80;67.40;;;;;;4135884;28;20409;-47
2023/01/31 10:23:03;;;;;;;2.10;1.02;;;25.90;67.30;;;;;;4136366;28;20050;-45
2023/01/31 10:25:48;;;;;;;3.25;1.63;;;25.90;67.20;;;;;;4132585;28;20453;-46
2023/01/31 10:28:48;;;;;;;5.38;1.38;;;26.00;67.20;;;;;;4137934;28;20104;-44
2023/01/31 10:31:32;;;;;;;3.25;1.30;;;26.00;67.00;;;;;;4136851;28;20498;-49
2023/01/31 10:33:58;;;;;;;4.03;1.30;;;26.10;66.90;;;;;;4136257;28;20049;-51
2023/01/31 10:36:37;;;;;;;3.38;1.17;;;26.10;66.70;;;;;;4131729;28;20349;-49
2023/01/31 10:39:47;;;;;;;6.55;1.65;;;26.10;66.50;;;;;;4140999;28;20116;-45
2023/01/31 10:42:20;;;;;;;3.53;1.40;;;26.10;66.50;;;;;;4073939;29;20491;-44
2023/01/31 10:44:54;;;;;;;3.80;1.23;;;26.20;66.40;;;;;;4073839;29;20057;-44
2023/01/31 10:47:20;;;;;;;2.75;1.13;;;26.20;66.30;;;;;;4109566;28;20577;-44
2023/01/31 10:49:48;;;;;;;3.55;1.17;;;26.20;66.20;;;;;;4137625;28;20038;-44
2023/01/31 10:52:13;;;;;;;2.90;1.20;;;26.20;66.10;;;;;;4134454;28;20041;-42
2023/01/31 10:55:27;;;;;;;3.50;1.40;;;26.30;66.10;;;;;;4132178;28;20042;-43
2023/01/31 10:57:51;;;;;;;2.70;1.15;;;26.30;66.10;;;;;;4116300;28;20162;-44
2023/01/31 11:00:25;;;;;;;4.28;1.30;;;26.40;66.00;;;;;;4137705;28;20494;-46
2023/01/31 11:02:48;;;;;;;7.20;1.45;;;26.50;66.00;;;;;;4138404;28;20089;-43
2023/01/31 11:05:20;;;;;;;2.87;1.10;;;26.50;65.90;;;;;;4134725;28;20042;-44
2023/01/31 11:07:42;;;;;;;6.47;1.45;;;26.50;65.80;;;;;;4140866;28;20181;-42
2023/01/31 11:10:25;;;;;;;2.25;1.17;;;26.50;65.80;;;;;;4137278;28;20656;-43
2023/01/31 11:12:58;;;;;;;1.65;1.08;;;26.50;65.70;;;;;;4136611;28;20037;-42
2023/01/31 11:15:25;;;;;;;1.90;1.03;;;26.50;65.60;;;;;;4130780;28;20046;-41
2023/01/31 11:17:49;;;;;;;1.92;1.08;;;26.60;65.60;;;;;;4137163;28;20060;-44
2023/01/31 11:20:43;;;;;;;1.90;1.10;;;26.60;65.50;;;;;;4137372;28;20167;-47
2023/01/31 11:23:06;;;;;;;3.78;1.70;;;26.60;65.50;;;;;;4137995;28;20355;-46
2023/01/31 11:25:31;;;;;;;4.00;1.55;;;26.60;65.40;;;;;;4135427;28;20367;-42
2023/01/31 11:28:00;;;;;;;3.38;1.80;;;26.60;65.30;;;;;;4136291;28;20052;-43
2023/01/31 11:30:31;;;;;;;5.65;2.15;;;26.70;65.30;;;;;;4136442;28;20050;-43
2023/01/31 11:32:53;;;;;;;8.63;2.58;;;26.70;65.20;;;;;;4136103;28;20034;-42
2023/01/31 11:35:16;;;;;;;6.97;2.30;;;26.70;65.20;;;;;;4136476;28;20133;-42
2023/01/31 11:37:53;;;;;;;8.48;2.47;;;26.70;65.00;;;;;;4132630;28;20458;-43
2023/01/31 11:40:15;;;;;;;9.48;2.70;;;26.80;65.30;;;;;;4129305;28;20528;-44
2023/01/31 11:42:55;;;;;;;8.55;2.35;;;26.80;65.00;;;;;;4132830;28;20081;-43
2023/01/31 11:45:21;;;;;;;8.93;2.47;;;26.80;65.00;;;;;;4134443;28;20399;-48
2023/01/31 11:47:51;;;;;;;10.82;2.65;;;26.80;65.00;;;;;;4129116;28;20042;-44
2023/01/31 11:50:24;;;;;;;5.30;2.30;;;26.80;65.00;;;;;;4134069;28;20112;-42
2023/01/31 11:52:53;;;;;;;6.88;2.63;;;26.80;65.00;;;;;;4129191;28;20034;-46
2023/01/31 11:55:17;;;;;;;6.30;2.50;;;26.80;65.00;;;;;;4132065;28;20046;-46
2023/01/31 11:57:40;;;;;;;5.97;2.00;;;26.70;65.00;;;;;;4136876;28;20494;-44
2023/01/31 12:00:17;;;;;;;7.38;2.25;;;26.80;65.00;;;;;;4138596;28;20426;-47
2023/01/31 12:02:41;;;;;;;6.13;2.50;;;26.70;65.00;;;;;;4136620;28;20038;-46
2023/01/31 12:05:18;;;;;;;4.22;1.90;;;26.70;65.10;;;;;;4129577;28;20079;-49
2023/01/31 12:07:49;;;;;;;5.20;2.15;;;26.70;65.20;;;;;;4132203;28;20109;-48
2023/01/31 12:10:47;;;;;;;9.38;2.72;;;26.70;65.30;;;;;;4131659;28;20181;-48
2023/01/31 12:13:18;;;;;;;5.93;2.30;;;26.70;65.30;;;;;;4072147;29;20039;-45
2023/01/31 12:15:54;;;;;;;7.20;1.92;;;26.70;65.30;;;;;;4129098;28;20034;-46
2023/01/31 12:18:29;;;;;;;5.28;1.60;;;26.70;65.30;;;;;;4137396;28;20080;-46
2023/01/31 12:21:03;;;;;;;6.05;1.70;;;26.60;65.20;;;;;;4132989;28;20417;-49
2023/01/31 12:23:52;;;;;;;4.10;1.80;;;26.60;65.60;;;;;;4133897;28;20038;-45
2023/01/31 12:26:24;;;;;;;3.85;1.55;;;26.60;65.30;;;;;;4134577;28;20063;-44
2023/01/31 12:29:18;;;;;;;5.82;1.73;;;26.60;65.30;;;;;;4131142;28;20498;-42
2023/01/31 12:32:18;;;;;;;6.53;1.23;;;26.60;65.50;;;;;;4131920;28;20041;-44
2023/01/31 12:35:15;;;;;;;4.15;1.23;;;26.60;65.50;;;;;;4135699;28;20042;-43
2023/01/31 12:37:38;;;;;;;4.05;1.38;;;26.70;65.60;;;;;;4134534;28;20052;-44
2023/01/31 12:40:10;;;;;;;3.40;1.00;;;26.60;65.50;;;;;;4134504;28;20112;-44
2023/01/31 12:42:48;;;;;;;5.03;1.38;;;26.60;65.50;;;;;;4134282;28;20646;-48
2023/01/31 12:45:32;;;;;;;3.67;1.30;;;26.70;65.60;;;;;;4134436;28;20113;-53
2023/01/31 12:48:21;;;;;;;7.90;1.50;;;26.70;65.50;;;;;;4131758;28;20115;-41
2023/01/31 12:50:43;;;;;;;4.93;0.98;;;26.70;66.20;;;;;;4136716;28;20117;-44
2023/01/31 12:53:05;;;;;;;5.13;1.20;;;26.70;65.60;;;;;;4135432;28;20065;-41
2023/01/31 12:55:36;;;;;;;7.05;1.08;;;26.70;65.60;;;;;;4134007;28;20105;-43